Time;durP1;ratioP1;P1;durP2;ratioP2;P2;SDS_P1;SDS_P2;PMS_P1;PMS_P2;Temp;Humidity;BMP_temperature;BMP_pressure;BME280_temperature;BME280_humidity;BME280_pressure;Samples;Min_cycle;Max_cycle;Signal;HPM_P1;HPM_P2
2022/11/01 00:03:47;;;;;;;16.13;13.02;;;;;;;15.33;86.45;100015.19;10434866;28;20049;-71
2022/11/01 00:08:48;;;;;;;17.85;13.52;;;;;;;15.23;85.97;100001.06;10427349;28;20502;-73
2022/11/01 00:13:50;;;;;;;14.85;13.20;;;;;;;15.09;86.86;100005.19;10434767;28;20459;-73
2022/11/01 00:18:51;;;;;;;15.90;12.45;;;;;;;15.15;86.99;100010.72;10455132;28;20048;-74
2022/11/01 00:23:52;;;;;;;10.75;9.73;;;;;;;15.24;86.50;100013.44;10443941;28;20131;-71
2022/11/01 00:28:54;;;;;;;16.60;10.52;;;;;;;15.13;87.13;100015.41;10419293;28;20060;-72
2022/11/01 00:33:55;;;;;;;11.15;9.98;;;;;;;15.20;87.08;100008.41;10433700;28;20056;-72
2022/11/01 00:38:57;;;;;;;10.63;9.05;;;;;;;15.30;87.10;100018.19;10431932;28;20055;-72
2022/11/01 00:43:58;;;;;;;12.55;9.80;;;;;;;15.38;86.45;100018.22;10432059;28;20433;-72
2022/11/01 00:48:59;;;;;;;15.50;11.40;;;;;;;15.42;86.13;100011.53;10434845;28;20566;-70
2022/11/01 00:54:01;;;;;;;13.10;11.45;;;;;;;15.44;86.43;100012.22;10420551;28;20057;-72
2022/11/01 00:59:02;;;;;;;12.50;10.98;;;;;;;15.44;85.23;100020.25;10436449;28;20059;-73
2022/11/01 01:04:04;;;;;;;15.30;10.30;;;;;;;15.39;86.12;100022.59;10407778;28;20730;-71
2022/11/01 01:09:05;;;;;;;13.50;9.95;;;;;;;15.41;86.10;100009.84;10395258;28;20049;-75
2022/11/01 01:14:07;;;;;;;11.65;10.43;;;;;;;15.28;86.12;100009.44;10395664;28;20515;-73
2022/11/01 01:19:08;;;;;;;13.50;11.10;;;;;;;15.19;87.17;99992.47;10392481;28;20053;-72
2022/11/01 01:24:09;;;;;;;13.23;11.35;;;;;;;15.23;86.89;99979.59;10390371;28;20453;-73
2022/11/01 01:29:11;;;;;;;13.60;11.25;;;;;;;15.13;87.74;99969.84;10393008;28;20052;-71
2022/11/01 01:34:12;;;;;;;13.80;10.95;;;;;;;15.05;88.39;99964.44;10390037;28;20068;-74
2022/11/01 01:39:13;;;;;;;14.63;11.32;;;;;;;14.98;88.47;99971.41;10393247;28;20503;-72
2022/11/01 01:44:46;;;;;;;17.17;12.50;;;;;;;15.02;88.66;99973.63;10394076;28;20476;-74
2022/11/01 01:50:17;;;;;;;15.23;12.13;;;;;;;14.94;89.20;99962.88;10390415;28;20060;-72
2022/11/01 01:55:25;;;;;;;18.50;15.27;;;;;;;14.90;89.04;99960.66;10387537;28;20548;-74
2022/11/01 02:00:26;;;;;;;22.25;15.02;;;;;;;14.98;88.80;99972.28;10394435;28;20041;-72
2022/11/01 02:05:47;;;;;;;15.95;14.35;;;;;;;15.00;88.38;99964.09;10393919;28;20052;-73
2022/11/01 02:10:49;;;;;;;16.48;14.80;;;;;;;14.92;88.92;99955.97;10391822;28;20152;-71
2022/11/01 02:16:17;;;;;;;17.98;14.48;;;;;;;15.10;88.34;99954.09;10389955;28;20229;-72
2022/11/01 02:21:39;;;;;;;16.35;13.82;;;;;;;15.06;87.97;99957.22;10392821;28;20527;-75
2022/11/01 02:26:56;;;;;;;16.25;13.90;;;;;;;14.96;88.97;99955.50;10392033;28;20049;-71
2022/11/01 02:32:16;;;;;;;14.82;13.27;;;;;;;15.04;88.48;99954.69;10402976;28;20049;-73
2022/11/01 02:37:22;;;;;;;15.60;12.57;;;;;;;15.00;88.27;99958.72;10388829;28;20072;-72
2022/11/01 02:42:27;;;;;;;15.25;11.63;;;;;;;15.00;88.76;99959.56;10389674;28;20445;-74
2022/11/01 02:47:30;;;;;;;14.95;10.35;;;;;;;15.22;87.98;99953.78;10395212;28;20038;-73
2022/11/01 02:52:36;;;;;;;16.25;11.45;;;;;;;15.13;87.32;99964.47;10388604;28;20044;-74
2022/11/01 02:57:40;;;;;;;12.77;11.43;;;;;;;15.09;87.96;99955.06;10392009;28;20045;-73
2022/11/01 03:02:43;;;;;;;13.30;10.52;;;;;;;15.11;87.94;99958.44;10390789;28;20049;-70
2022/11/01 03:07:51;;;;;;;12.23;10.90;;;;;;;15.08;88.14;99953.38;10395643;28;20099;-73
2022/11/01 03:13:28;;;;;;;18.42;12.07;;;;;;;15.00;88.56;99953.38;10397774;28;20501;-74
2022/11/01 03:18:34;;;;;;;13.40;12.00;;;;;;;15.02;88.93;99962.06;10411854;28;20045;-73
2022/11/01 03:23:42;;;;;;;16.60;12.98;;;;;;;14.95;89.38;99977.09;10427104;28;20067;-72
2022/11/01 03:28:48;;;;;;;18.95;11.93;;;;;;;14.93;89.78;99990.66;10428938;28;20045;-72
2022/11/01 03:34:00;;;;;;;12.07;10.65;;;;;;;15.00;89.71;100004.28;10427205;28;20416;-74
2022/11/01 03:39:13;;;;;;;13.25;11.02;;;;;;;15.03;90.11;99999.44;10426283;28;20097;-73
2022/11/01 03:44:15;;;;;;;15.30;11.53;;;;;;;15.05;90.09;100012.69;10384520;28;20052;-71
2022/11/01 03:49:17;;;;;;;13.45;10.23;;;;;;;15.02;91.00;100004.94;10387977;28;20044;-72
2022/11/01 03:54:19;;;;;;;17.35;11.48;;;;;;;14.89;93.07;100010.72;10396416;28;20064;-74
2022/11/01 03:59:25;;;;;;;17.13;11.88;;;;;;;14.89;94.79;100009.91;10399398;28;20513;-71
2022/11/01 04:04:26;;;;;;;16.20;10.90;;;;;;;14.94;94.59;100012.97;10402043;28;20056;-70
2022/11/01 04:09:28;;;;;;;14.85;10.80;;;;;;;14.97;94.23;100013.47;10396087;28;20049;-70
2022/11/01 04:25:08;;;;;;;11.13;9.93;;;;;;;14.83;95.99;100033.66;10398335;28;20606;-70
2022/11/01 04:30:10;;;;;;;13.07;10.85;;;;;;;14.85;96.08;100028.97;10398172;28;20045;-70
2022/11/01 04:35:11;;;;;;;11.43;10.23;;;;;;;14.83;96.28;100044.38;10394804;28;20092;-72
2022/11/01 04:40:14;;;;;;;14.90;9.82;;;;;;;14.84;97.52;100043.34;10392940;28;20061;-72
2022/11/01 04:45:15;;;;;;;12.43;9.23;;;;;;;14.87;98.51;100038.69;10404076;28;20062;-74
2022/11/01 04:50:18;;;;;;;15.15;10.70;;;;;;;14.84;99.42;100042.53;10422264;28;20053;-74
2022/11/01 04:55:20;;;;;;;12.40;10.23;;;;;;;14.95;99.31;100033.38;10420285;28;20471;-71
2022/11/01 05:00:22;;;;;;;10.98;9.82;;;;;;;14.94;100.00;100034.41;10396023;28;20064;-72
2022/11/01 05:05:23;;;;;;;14.38;10.35;;;;;;;14.91;100.00;100050.78;10383944;28;20875;-70
2022/11/01 05:10:24;;;;;;;11.60;9.95;;;;;;;14.91;100.00;100050.78;10393878;28;20049;-69
2022/11/01 05:15:25;;;;;;;12.95;9.93;;;;;;;14.98;100.00;100062.53;10393682;28;20045;-73
2022/11/01 05:20:29;;;;;;;12.93;9.88;;;;;;;15.05;100.00;100063.59;10396634;28;20508;-69
2022/11/01 05:25:31;;;;;;;11.23;9.93;;;;;;;15.04;100.00;100059.22;10401283;28;20060;-72
2022/11/01 05:30:39;;;;;;;13.27;10.27;;;;;;;15.11;100.00;100073.69;10395864;28;20045;-72
2022/11/01 05:35:40;;;;;;;12.30;9.38;;;;;;;15.12;100.00;100075.38;10388656;28;20259;-74
2022/11/01 05:40:42;;;;;;;10.88;9.77;;;;;;;15.08;100.00;100090.09;10389927;28;20067;-73
2022/11/01 05:45:43;;;;;;;17.48;9.25;;;;;;;15.06;100.00;100089.41;10391475;28;20057;-75
2022/11/01 05:50:45;;;;;;;14.18;10.40;;;;;;;15.13;100.00;100100.34;10388044;28;20057;-72
2022/11/01 05:55:47;;;;;;;12.68;8.90;;;;;;;15.13;100.00;100092.31;10389206;28;20427;-71
2022/11/01 06:00:48;;;;;;;12.98;9.52;;;;;;;15.14;100.00;100094.81;10394616;28;20049;-72
2022/11/01 06:05:49;;;;;;;12.63;10.05;;;;;;;15.19;100.00;100107.75;10392823;28;20045;-75
2022/11/01 06:10:51;;;;;;;11.43;8.85;;;;;;;15.20;100.00;100098.72;10400894;28;20060;-72
2022/11/01 06:16:00;;;;;;;16.17;9.55;;;;;;;15.17;100.00;100109.75;10406651;28;20072;-73
2022/11/01 06:21:02;;;;;;;11.18;10.05;;;;;;;15.19;100.00;100119.34;10386340;28;20048;-72
2022/11/01 06:26:04;;;;;;;11.57;9.25;;;;;;;15.28;100.00;100127.44;10380590;28;20746;-76
2022/11/01 06:31:06;;;;;;;14.18;10.48;;;;;;;15.22;100.00;100128.06;10374120;28;20055;-69
2022/11/01 06:36:07;;;;;;;21.17;11.90;;;;;;;15.23;100.00;100140.47;10377081;28;20055;-73
2022/11/01 06:41:16;;;;;;;12.57;10.68;;;;;;;15.16;100.00;100140.25;10371562;27;20429;-65
2022/11/01 06:46:17;;;;;;;14.38;11.45;;;;;;;15.13;100.00;100135.19;10363738;28;20529;-65
2022/11/01 06:51:18;;;;;;;10.70;9.52;;;;;;;15.15;100.00;100134.06;10386016;28;20049;-66
2022/11/01 06:56:20;;;;;;;13.18;10.00;;;;;;;15.17;100.00;100148.13;10376518;28;20048;-65
2022/11/01 07:01:23;;;;;;;15.35;10.55;;;;;;;15.15;100.00;100160.88;10372619;28;20504;-66
2022/11/01 07:06:29;;;;;;;15.20;12.30;;;;;;;15.10;100.00;100173.91;10369936;28;20525;-66
2022/11/01 07:11:32;;;;;;;11.48;10.27;;;;;;;15.16;100.00;100183.13;10371236;28;20302;-64
2022/11/01 07:16:33;;;;;;;14.30;9.52;;;;;;;15.19;100.00;100177.47;10367192;28;20832;-64
2022/11/01 07:21:35;;;;;;;18.05;9.35;;;;;;;15.36;100.00;100198.06;10365317;28;20049;-64
2022/11/01 07:26:37;;;;;;;14.55;9.02;;;;;;;15.42;100.00;100201.97;10364014;28;20045;-64
2022/11/01 07:31:38;;;;;;;12.18;9.27;;;;;;;15.48;100.00;100197.81;10370802;28;20045;-64
2022/11/01 07:36:39;;;;;;;11.70;8.95;;;;;;;15.52;100.00;100205.41;10373544;28;20052;-64
2022/11/01 07:41:41;;;;;;;11.43;9.45;;;;;;;15.51;100.00;100209.06;10374403;28;20063;-64
2022/11/01 07:46:42;;;;;;;11.00;8.90;;;;;;;15.54;100.00;100211.44;10376665;28;20059;-64
2022/11/01 07:51:43;;;;;;;12.77;8.35;;;;;;;15.55;100.00;100221.19;10356355;28;20411;-64
2022/11/01 07:56:46;;;;;;;10.02;7.70;;;;;;;15.66;100.00;100235.34;10346177;28;20052;-64
2022/11/01 08:01:48;;;;;;;10.20;8.15;;;;;;;15.70;100.00;100236.69;10345849;28;20059;-64
2022/11/01 08:06:49;;;;;;;8.60;7.57;;;;;;;15.76;100.00;100233.38;10346678;28;20889;-64
2022/11/01 08:11:52;;;;;;;10.35;7.22;;;;;;;15.86;100.00;100234.16;10346749;28;20282;-64
2022/11/01 08:17:00;;;;;;;8.05;6.93;;;;;;;15.85;100.00;100247.72;10346117;28;20046;-64
2022/11/01 08:22:02;;;;;;;9.70;7.07;;;;;;;15.78;100.00;100246.66;10363367;28;20789;-64
2022/11/01 08:27:03;;;;;;;10.45;6.55;;;;;;;15.86;100.00;100258.28;10341568;28;20045;-64
2022/11/01 08:32:04;;;;;;;8.23;6.05;;;;;;;15.97;100.00;100259.03;10348232;28;20045;-65
2022/11/01 08:37:06;;;;;;;8.77;6.97;;;;;;;16.01;100.00;100255.88;10343220;28;20739;-64
2022/11/01 08:42:08;;;;;;;8.20;6.85;;;;;;;16.02;100.00;100262.09;10357975;28;20162;-63
2022/11/01 08:47:10;;;;;;;9.27;6.28;;;;;;;16.04;100.00;100263.59;10337344;28;20053;-65
2022/11/01 08:52:12;;;;;;;8.73;6.97;;;;;;;16.11;100.00;100274.56;10345813;28;21169;-64
2022/11/01 08:57:14;;;;;;;9.52;7.00;;;;;;;16.11;99.67;100285.31;10341543;28;20060;-64
2022/11/01 09:02:16;;;;;;;6.53;5.82;;;;;;;16.25;99.10;100290.06;10341248;28;20053;-64
2022/11/01 09:07:18;;;;;;;8.75;6.95;;;;;;;16.35;97.59;100283.75;10338954;28;20126;-64
2022/11/01 09:12:19;;;;;;;5.38;4.88;;;;;;;16.56;96.20;100292.25;10338720;28;20053;-66
2022/11/01 09:17:25;;;;;;;4.85;4.38;;;;;;;16.67;94.67;100306.41;10340860;28;20296;-65
2022/11/01 09:22:27;;;;;;;7.35;4.85;;;;;;;16.61;94.60;100311.41;10344358;28;20494;-65
2022/11/01 09:27:29;;;;;;;8.23;4.22;;;;;;;16.76;93.31;100297.38;10336703;28;20082;-65
2022/11/01 09:32:30;;;;;;;5.55;4.70;;;;;;;17.24;89.46;100313.81;10341210;28;20053;-65
2022/11/01 09:37:32;;;;;;;9.82;4.75;;;;;;;17.57;86.18;100300.41;10342127;28;20187;-63
2022/11/01 09:42:38;;;;;;;6.53;4.15;;;;;;;17.92;83.34;100317.22;10338070;28;20068;-63
2022/11/01 09:47:44;;;;;;;6.05;4.22;;;;;;;18.18;80.93;100311.66;10337223;28;20387;-63
2022/11/01 09:52:47;;;;;;;7.90;5.10;;;;;;;19.07;76.36;100325.81;10335773;28;20049;-65
2022/11/01 09:57:59;;;;;;;5.43;3.67;;;;;;;19.87;71.85;100329.13;10337387;28;20049;-62
2022/11/01 10:03:20;;;;;;;4.82;3.65;;;;;;;19.71;69.96;100327.41;10338979;28;20065;-65
2022/11/01 10:08:32;;;;;;;5.43;2.30;;;;;;;18.99;68.96;100335.78;10337056;28;20063;-65
2022/11/01 10:13:56;;;;;;;3.83;2.22;;;;;;;20.27;58.62;100329.75;10372163;22;20555;-64
2022/11/01 10:19:16;;;;;;;3.70;1.10;;;;;;;22.19;49.68;100344.84;10355130;28;20052;-64
2022/11/01 10:24:48;;;;;;;4.03;1.10;;;;;;;23.87;44.88;100345.53;10381067;28;20132;-64
2022/11/01 10:30:03;;;;;;;3.20;1.30;;;;;;;23.91;42.73;100355.75;10332366;28;21869;-65
2022/11/01 10:35:13;;;;;;;2.35;0.63;;;;;;;24.64;37.96;100354.03;10397771;28;20047;-64
2022/11/01 10:40:22;;;;;;;1.88;0.43;;;;;;;28.60;34.84;100340.50;10397136;28;20059;-66
2022/11/01 10:45:23;;;;;;;3.15;0.60;;;;;;;30.06;29.37;100341.06;10386272;28;20053;-66
2022/11/01 10:50:29;;;;;;;4.25;0.80;;;;;;;32.39;28.15;100346.06;10392335;28;20056;-66
2022/11/01 10:55:55;;;;;;;5.40;0.60;;;;;;;32.73;26.17;100346.56;10393285;28;20060;-67
2022/11/01 11:00:57;;;;;;;1.08;0.22;;;;;;;34.32;23.45;100345.09;10344112;28;20577;-67
2022/11/01 11:06:06;;;;;;;1.80;0.45;;;;;;;35.11;22.21;100334.28;10350120;28;20049;-67
2022/11/01 11:11:13;;;;;;;2.75;0.40;;;;;;;36.74;20.94;100343.38;10353704;28;20053;-66
2022/11/01 11:16:25;;;;;;;2.80;0.68;;;;;;;36.04;20.35;100341.91;10384707;28;20045;-67
2022/11/01 11:21:32;;;;;;;3.97;0.35;;;;;;;34.47;21.07;100355.28;10391220;28;21671;-66
2022/11/01 11:26:37;;;;;;;2.00;0.30;;;;;;;36.71;20.23;100346.75;10389392;28;20045;-66
2022/11/01 11:31:40;;;;;;;1.38;0.63;;;;;;;38.10;19.68;100345.47;10394670;28;20505;-67
2022/11/01 11:36:45;;;;;;;1.48;0.50;;;;;;;37.35;18.81;100346.44;10397425;28;20058;-66
2022/11/01 11:41:47;;;;;;;2.15;0.40;;;;;;;35.91;19.55;100355.34;10401040;28;20091;-66
2022/11/01 11:46:57;;;;;;;2.13;0.50;;;;;;;37.06;19.36;100337.13;10400425;28;20052;-66
2022/11/01 11:51:58;;;;;;;1.83;0.20;;;;;;;37.70;16.45;100347.00;10404645;28;21069;-67
2022/11/01 11:57:07;;;;;;;1.45;0.30;;;;;;;37.65;16.49;100348.75;10393695;28;20048;-66
2022/11/01 12:02:16;;;;;;;;;;;;;;;37.68;16.90;100344.50;10390851;28;20060;-67
2022/11/01 12:07:26;;;;;;;2.60;0.28;;;;;;;37.43;16.68;100348.53;10363340;28;20426;-67
2022/11/01 12:12:29;;;;;;;1.73;0.20;;;;;;;37.30;17.01;100350.94;10396586;28;20048;-68
2022/11/01 12:17:34;;;;;;;2.58;0.50;;;;;;;37.25;16.82;100342.72;10397794;28;20067;-66
2022/11/01 12:22:39;;;;;;;1.35;0.52;;;;;;;38.57;15.59;100339.88;10406644;28;20056;-66
2022/11/01 12:27:49;;;;;;;3.72;0.30;;;;;;;37.59;15.76;100352.72;10393511;28;20510;-66
2022/11/01 12:32:53;;;;;;;1.65;0.30;;;;;;;37.20;16.51;100341.94;10397044;28;20631;-66
2022/11/01 12:38:07;;;;;;;3.03;0.50;;;;;;;36.51;16.93;100340.31;10396569;28;20052;-67
2022/11/01 12:43:15;;;;;;;1.70;0.60;;;;;;;35.25;18.10;100350.25;10353294;28;20041;-67
2022/11/01 12:48:32;;;;;;;2.40;0.57;;;;;;;35.96;18.44;100345.31;10338433;28;20053;-67
2022/11/01 12:53:40;;;;;;;2.85;0.60;;;;;;;36.33;17.99;100346.63;10398249;28;20056;-67
2022/11/01 12:58:41;;;;;;;2.78;0.80;;;;;;;36.79;17.45;100335.00;10395735;28;20413;-68
2022/11/01 13:04:01;;;;;;;1.92;0.60;;;;;;;35.89;17.15;100335.38;10393567;28;20073;-67
2022/11/01 13:09:21;;;;;;;3.38;0.50;;;;;;;37.83;15.84;100340.69;10396826;28;20864;-67
2022/11/01 13:14:51;;;;;;;1.98;0.65;;;;;;;36.55;15.51;100341.38;10384509;28;20453;-65
2022/11/01 13:20:30;;;;;;;2.28;0.40;;;;;;;35.18;16.40;100343.09;10377014;28;20502;-66
2022/11/01 13:25:43;;;;;;;3.13;0.60;;;;;;;35.68;16.08;100344.97;10396664;28;20060;-67
2022/11/01 13:31:15;;;;;;;1.92;0.50;;;;;;;35.08;16.74;100337.63;10386684;28;20040;-66
2022/11/01 13:36:47;;;;;;;2.20;0.40;;;;;;;35.79;15.85;100329.94;10389976;28;20055;-66
2022/11/01 13:42:15;;;;;;;2.83;0.50;;;;;;;37.43;14.67;100321.63;10339473;28;20056;-67
2022/11/01 13:47:34;;;;;;;3.08;0.50;;;;;;;36.20;15.42;100337.06;10391957;28;20049;-67
2022/11/01 13:52:44;;;;;;;1.75;0.95;;;;;;;36.45;14.78;100335.94;10387636;28;20045;-67
2022/11/01 13:57:45;;;;;;;2.72;0.47;;;;;;;36.88;15.96;100340.72;10387623;28;20052;-68
2022/11/01 14:02:57;;;;;;;2.88;0.63;;;;;;;38.24;14.42;100342.75;10396649;28;20782;-67
2022/11/01 14:08:02;;;;;;;2.08;0.43;;;;;;;37.06;15.54;100345.44;10388788;28;20064;-67
2022/11/01 14:13:10;;;;;;;2.30;0.40;;;;;;;35.42;16.81;100347.94;10373123;28;20061;-67
2022/11/01 14:18:11;;;;;;;1.75;0.50;;;;;;;35.19;17.18;100342.00;10376049;28;20041;-67
2022/11/01 14:23:26;;;;;;;1.10;0.40;;;;;;;34.85;17.13;100359.31;10375896;28;20064;-67
2022/11/01 14:28:29;;;;;;;2.95;0.22;;;;;;;34.22;16.77;100358.91;10390721;28;20062;-68
2022/11/01 14:33:32;;;;;;;2.70;0.52;;;;;;;32.96;18.15;100344.41;10388492;28;20048;-66
2022/11/01 14:38:39;;;;;;;2.47;0.70;;;;;;;33.50;18.40;100343.19;10398733;28;20747;-66
2022/11/01 14:43:47;;;;;;;2.55;0.40;;;;;;;31.07;19.53;100358.38;10399509;28;20045;-67
2022/11/01 14:49:04;;;;;;;2.30;0.55;;;;;;;26.99;24.06;100345.75;10390518;28;20060;-65
2022/11/01 14:54:44;;;;;;;4.07;0.85;;;;;;;23.64;29.13;100353.03;10374474;28;20537;-66
2022/11/01 14:59:45;;;;;;;2.40;0.93;;;;;;;21.94;31.32;100368.00;10380337;28;20052;-61
2022/11/01 15:04:56;;;;;;;3.22;0.73;;;;;;;21.03;33.27;100355.75;10393386;28;20056;-60
2022/11/01 15:10:10;;;;;;;3.47;0.75;;;;;;;20.35;35.11;100369.38;10392748;28;20040;-62
2022/11/01 15:15:27;;;;;;;5.47;0.85;;;;;;;20.07;34.93;100364.59;10398009;28;20040;-63
2022/11/01 15:20:36;;;;;;;2.45;0.73;;;;;;;19.46;34.92;100366.41;10395630;28;20060;-64
2022/11/01 15:25:39;;;;;;;4.65;0.90;;;;;;;18.87;35.78;100376.66;10397381;28;20060;-63
2022/11/01 15:30:40;;;;;;;3.33;0.57;;;;;;;18.79;36.09;100386.59;10392504;28;20053;-63
2022/11/01 15:35:42;;;;;;;4.38;0.90;;;;;;;18.56;37.34;100379.25;10399506;28;20045;-62
2022/11/01 15:40:44;;;;;;;2.83;0.95;;;;;;;18.29;37.76;100392.09;10394124;28;20081;-62
2022/11/01 15:45:51;;;;;;;2.50;0.98;;;;;;;18.12;39.79;100385.03;10393617;28;20056;-62
2022/11/01 15:50:58;;;;;;;4.47;0.98;;;;;;;17.93;39.79;100394.31;10395112;28;20053;-62
2022/11/01 15:56:11;;;;;;;4.03;1.08;;;;;;;17.80;39.69;100390.22;10394870;28;20711;-64
2022/11/01 16:01:19;;;;;;;4.07;1.00;;;;;;;17.63;40.46;100394.75;10378249;28;20051;-65
2022/11/01 16:06:24;;;;;;;5.00;1.40;;;;;;;17.42;41.59;100397.09;10389704;28;20053;-65
2022/11/01 16:11:29;;;;;;;5.63;1.45;;;;;;;17.21;42.00;100400.22;10391474;28;20048;-64
2022/11/01 16:17:01;;;;;;;3.85;1.25;;;;;;;16.94;42.55;100411.03;10396951;28;20053;-65
2022/11/01 16:22:24;;;;;;;3.97;1.40;;;;;;;16.80;43.79;100419.69;10398967;28;20422;-63
2022/11/01 16:27:27;;;;;;;3.08;1.00;;;;;;;16.72;43.68;100439.31;10391213;28;20524;-63
2022/11/01 16:32:34;;;;;;;4.68;1.55;;;;;;;16.57;44.40;100425.63;10386622;28;20044;-64
2022/11/01 16:37:41;;;;;;;5.05;1.58;;;;;;;16.61;45.65;100445.78;10392216;28;20044;-63
2022/11/01 16:42:43;;;;;;;7.57;2.20;;;;;;;16.47;44.77;100467.84;10387135;28;20056;-63
2022/11/01 16:47:44;;;;;;;2.55;0.95;;;;;;;16.33;44.53;100471.09;10387671;28;20066;-64
2022/11/01 16:52:45;;;;;;;3.70;1.40;;;;;;;16.34;44.50;100478.16;10396211;28;20052;-63
2022/11/01 16:57:47;;;;;;;4.55;1.60;;;;;;;16.24;44.81;100476.41;10392224;28;20252;-63
2022/11/01 17:02:48;;;;;;;4.65;1.38;;;;;;;15.94;45.62;100480.31;10393927;28;20044;-62
2022/11/01 17:07:50;;;;;;;6.90;1.65;;;;;;;15.84;45.94;100483.09;10393270;28;20056;-63
2022/11/01 17:12:56;;;;;;;5.60;1.27;;;;;;;15.77;46.34;100492.69;10390784;28;20055;-63
2022/11/01 17:18:05;;;;;;;7.15;1.95;;;;;;;15.74;46.70;100503.75;10394700;28;20330;-63
2022/11/01 17:23:13;;;;;;;5.75;1.27;;;;;;;15.68;46.73;100507.03;10393293;28;20934;-63
2022/11/01 17:28:14;;;;;;;6.63;1.80;;;;;;;15.54;47.81;100506.53;10393236;28;20670;-62
2022/11/01 17:33:16;;;;;;;8.90;2.67;;;;;;;15.58;48.19;100507.06;10387518;28;20064;-62
2022/11/01 17:38:26;;;;;;;9.50;2.47;;;;;;;15.53;47.83;100515.56;10390159;28;21575;-62
2022/11/01 17:43:30;;;;;;;7.38;2.30;;;;;;;15.36;48.45;100509.19;10394539;28;20096;-64
2022/11/01 17:48:32;;;;;;;6.30;2.55;;;;;;;15.29;48.95;100505.38;10392163;28;20060;-63
2022/11/01 17:53:33;;;;;;;5.35;1.80;;;;;;;15.32;50.48;100514.97;10388100;28;20068;-62
2022/11/01 17:58:35;;;;;;;3.88;1.65;;;;;;;15.17;51.01;100523.50;10390014;28;20079;-62
2022/11/01 18:03:36;;;;;;;6.25;1.70;;;;;;;15.07;51.89;100538.78;10377235;28;20166;-63
2022/11/01 18:08:44;;;;;;;8.98;2.58;;;;;;;14.91;52.51;100535.88;10341893;28;20056;-63
2022/11/01 18:14:02;;;;;;;5.40;1.98;;;;;;;14.85;53.41;100540.81;10395995;28;20058;-63
2022/11/01 18:19:33;;;;;;;4.15;1.90;;;;;;;14.73;53.90;100547.31;10406578;28;20060;-62
2022/11/01 18:24:40;;;;;;;8.75;2.08;;;;;;;14.76;54.16;100547.03;10401635;28;20056;-62
2022/11/01 18:29:45;;;;;;;3.45;1.92;;;;;;;14.64;54.67;100553.56;10352464;28;20045;-63
2022/11/01 18:35:10;;;;;;;4.40;2.13;;;;;;;14.54;54.80;100552.69;10336666;28;20052;-62
2022/11/01 18:40:21;;;;;;;5.55;1.92;;;;;;;14.44;55.61;100553.53;10389283;28;20588;-63
2022/11/01 18:45:24;;;;;;;6.70;2.63;;;;;;;14.38;56.07;100554.09;10403885;28;20793;-64
2022/11/01 18:50:37;;;;;;;4.20;1.90;;;;;;;14.28;55.91;100553.25;10432142;28;21025;-63
2022/11/01 18:55:39;;;;;;;5.93;2.55;;;;;;;14.15;56.62;100559.69;10432176;28;21228;-63
2022/11/01 19:00:41;;;;;;;6.50;2.83;;;;;;;14.06;57.29;100560.53;10417097;28;20061;-62
2022/11/01 19:05:43;;;;;;;9.88;2.50;;;;;;;14.11;57.61;100565.47;10416343;28;20043;-62
2022/11/01 19:10:45;;;;;;;11.60;3.25;;;;;;;14.08;57.58;100555.03;10432856;28;20422;-63
2022/11/01 19:15:47;;;;;;;7.05;2.90;;;;;;;14.03;58.09;100566.16;10424996;28;20068;-62
2022/11/01 19:20:56;;;;;;;7.22;3.55;;;;;;;14.00;57.79;100577.16;10396603;28;20052;-62
2022/11/01 19:25:57;;;;;;;5.80;3.05;;;;;;;14.06;57.91;100570.41;10380541;28;20052;-65
2022/11/01 19:31:07;;;;;;;8.48;3.42;;;;;;;14.13;58.13;100560.84;10384122;28;20745;-59
2022/11/01 19:36:19;;;;;;;6.43;2.72;;;;;;;14.16;58.59;100555.22;10389719;28;20052;-60
2022/11/01 19:41:32;;;;;;;11.13;4.18;;;;;;;14.20;57.79;100563.78;10392039;28;20063;-62
2022/11/01 19:46:34;;;;;;;7.60;3.15;;;;;;;14.20;58.43;100556.63;10395467;28;20049;-62
2022/11/01 19:51:35;;;;;;;9.15;3.05;;;;;;;14.22;58.82;100561.84;10400502;28;20053;-62
2022/11/01 19:56:37;;;;;;;8.10;2.53;;;;;;;14.24;58.88;100563.38;10398965;28;20056;-64
2022/11/01 20:01:41;;;;;;;8.63;3.78;;;;;;;14.24;58.41;100565.22;10373586;28;20843;-62
2022/11/01 20:06:47;;;;;;;7.40;3.08;;;;;;;14.19;58.72;100564.81;10344047;28;20057;-62
2022/11/01 20:11:49;;;;;;;9.02;3.50;;;;;;;14.07;58.75;100562.25;10390888;28;20129;-62
2022/11/01 20:16:50;;;;;;;9.13;3.08;;;;;;;14.09;59.57;100570.97;10393414;28;20051;-62
2022/11/01 20:21:52;;;;;;;5.45;2.92;;;;;;;14.00;59.24;100577.16;10401232;28;20977;-62
2022/11/01 20:26:53;;;;;;;7.65;2.80;;;;;;;13.91;59.64;100572.63;10401876;28;20795;-62
2022/11/01 20:31:55;;;;;;;9.70;2.17;;;;;;;13.78;60.30;100579.09;10407723;28;20067;-62
2022/11/01 20:36:56;;;;;;;4.85;1.85;;;;;;;13.67;60.98;100589.88;10398805;28;20048;-62
2022/11/01 20:42:18;;;;;;;4.57;1.85;;;;;;;13.63;61.97;100596.50;10408184;28;20076;-62
2022/11/01 20:47:19;;;;;;;6.88;2.67;;;;;;;13.57;61.75;100613.94;10399323;28;20080;-62
2022/11/01 20:52:21;;;;;;;6.97;2.33;;;;;;;13.58;62.48;100614.75;10403767;28;20078;-62
2022/11/01 20:57:43;;;;;;;6.57;3.50;;;;;;;13.48;62.57;100611.19;10394808;28;20067;-63
2022/11/01 21:02:46;;;;;;;9.35;4.35;;;;;;;13.65;63.13;100621.28;10403576;28;20059;-62
2022/11/01 21:07:48;;;;;;;8.18;3.53;;;;;;;13.76;63.07;100618.47;10396825;28;20074;-62
2022/11/01 21:12:49;;;;;;;7.90;2.20;;;;;;;13.58;63.55;100622.78;10395530;28;20053;-62
2022/11/01 21:18:06;;;;;;;4.45;1.98;;;;;;;13.35;64.64;100633.66;10394242;28;20141;-62
2022/11/01 21:23:20;;;;;;;6.65;2.00;;;;;;;13.43;64.85;100630.31;10393829;28;20747;-62
2022/11/01 21:28:54;;;;;;;6.55;2.40;;;;;;;13.34;64.87;100631.94;10389436;28;20036;-62
2022/11/01 21:33:59;;;;;;;5.47;2.33;;;;;;;13.18;65.54;100629.72;10385889;28;20083;-62
2022/11/01 21:39:13;;;;;;;6.00;2.03;;;;;;;13.33;65.38;100635.59;10405954;28;20045;-62
2022/11/01 21:44:38;;;;;;;;;;;;;;;13.35;65.74;100633.66;10382458;28;20046;-62
2022/11/01 21:49:40;;;;;;;4.78;1.92;;;;;;;13.29;65.70;100628.81;10408810;28;19932;-63
2022/11/01 21:54:42;;;;;;;4.25;1.77;;;;;;;13.31;65.56;100623.31;10416304;28;20056;-62
2022/11/01 21:59:43;;;;;;;6.47;2.20;;;;;;;13.40;65.46;100617.22;10416960;28;20131;-62
2022/11/01 22:04:48;;;;;;;7.82;2.03;;;;;;;13.35;65.70;100620.28;10319899;28;20102;-63
2022/11/01 22:09:51;;;;;;;6.03;2.05;;;;;;;13.38;65.57;100620.03;10370028;22;20052;-60
2022/11/01 22:14:53;;;;;;;8.30;2.55;;;;;;;13.35;65.36;100624.78;10454130;28;20052;-61
2022/11/01 22:19:54;;;;;;;5.43;2.13;;;;;;;13.32;66.17;100625.03;10453204;28;20048;-62
2022/11/01 22:24:55;;;;;;;6.07;2.80;;;;;;;13.23;65.58;100619.47;10449680;28;20045;-62
2022/11/01 22:29:57;;;;;;;6.85;2.30;;;;;;;13.23;66.11;100627.50;10444678;28;20047;-64
2022/11/01 22:34:58;;;;;;;6.53;3.35;;;;;;;13.08;66.73;100631.50;10442712;28;20059;-60
2022/11/01 22:40:07;;;;;;;9.93;3.58;;;;;;;13.16;66.47;100641.53;10443704;28;20182;-61
2022/11/01 22:45:18;;;;;;;7.57;2.60;;;;;;;13.13;66.29;100626.59;10444558;28;20051;-62
2022/11/01 22:50:25;;;;;;;9.10;3.05;;;;;;;13.05;66.88;100623.75;10440475;28;20040;-63
2022/11/01 22:55:29;;;;;;;7.03;2.50;;;;;;;13.02;66.95;100627.50;10444011;28;20421;-63
2022/11/01 23:00:39;;;;;;;10.10;2.97;;;;;;;13.11;67.17;100622.38;10443185;28;20056;-62
2022/11/01 23:05:41;;;;;;;7.43;2.55;;;;;;;13.18;66.97;100623.53;10442341;28;20135;-61
2022/11/01 23:10:46;;;;;;;6.47;2.55;;;;;;;13.16;67.59;100634.34;10440625;28;20055;-61
2022/11/01 23:15:50;;;;;;;8.90;2.75;;;;;;;13.30;66.43;100627.84;10447869;28;20036;-65
2022/11/01 23:20:54;;;;;;;6.03;2.47;;;;;;;13.28;66.42;100629.78;10495642;28;20036;-63
2022/11/01 23:25:59;;;;;;;7.50;2.08;;;;;;;13.29;67.00;100617.28;10499476;28;20063;-62
2022/11/01 23:31:04;;;;;;;5.00;2.42;;;;;;;13.33;66.76;100618.69;10493894;28;20048;-61